sensor_id;sensor_type;location;lat;lon;timestamp;temperature;humidity
61591;DHT22;71994;52.410;-1.966;2024-01-25T00:00:11;16.10;49.10
61591;DHT22;71994;52.410;-1.966;2024-01-25T00:03:17;16.00;49.20
61591;DHT22;71994;52.410;-1.966;2024-01-25T00:06:24;16.00;49.10
61591;DHT22;71994;52.410;-1.966;2024-01-25T00:09:30;16.00;49.20
61591;DHT22;71994;52.410;-1.966;2024-01-25T00:12:39;16.00;49.20
61591;DHT22;71994;52.410;-1.966;2024-01-25T00:15:46;16.00;49.20
61591;DHT22;71994;52.410;-1.966;2024-01-25T00:18:52;15.90;49.20
61591;DHT22;71994;52.410;-1.966;2024-01-25T00:21:58;15.90;49.10
61591;DHT22;71994;52.410;-1.966;2024-01-25T00:25:05;15.90;49.20
61591;DHT22;71994;52.410;-1.966;2024-01-25T00:28:15;15.90;49.20
61591;DHT22;71994;52.410;-1.966;2024-01-25T00:31:21;15.90;49.20
61591;DHT22;71994;52.410;-1.966;2024-01-25T00:34:28;15.80;49.20
61591;DHT22;71994;52.410;-1.966;2024-01-25T00:37:35;15.80;49.20
61591;DHT22;71994;52.410;-1.966;2024-01-25T00:40:41;15.80;49.20
61591;DHT22;71994;52.410;-1.966;2024-01-25T00:43:51;15.70;49.30
61591;DHT22;71994;52.410;-1.966;2024-01-25T00:46:59;15.80;49.30
61591;DHT22;71994;52.410;-1.966;2024-01-25T00:50:07;15.70;49.30
61591;DHT22;71994;52.410;-1.966;2024-01-25T00:53:13;15.70;49.20
61591;DHT22;71994;52.410;-1.966;2024-01-25T00:56:22;15.70;49.30
61591;DHT22;71994;52.410;-1.966;2024-01-25T00:59:34;15.70;49.30
61591;DHT22;71994;52.410;-1.966;2024-01-25T01:02:43;15.60;49.30
61591;DHT22;71994;52.410;-1.966;2024-01-25T01:05:50;15.60;49.30
61591;DHT22;71994;52.410;-1.966;2024-01-25T01:08:56;15.60;49.30
61591;DHT22;71994;52.410;-1.966;2024-01-25T01:12:03;15.60;49.30
61591;DHT22;71994;52.410;-1.966;2024-01-25T01:15:12;15.60;49.30
61591;DHT22;71994;52.410;-1.966;2024-01-25T01:18:18;15.60;49.30
61591;DHT22;71994;52.410;-1.966;2024-01-25T01:21:25;15.60;49.30
61591;DHT22;71994;52.410;-1.966;2024-01-25T01:24:31;15.60;49.30
61591;DHT22;71994;52.410;-1.966;2024-01-25T01:27:37;15.60;49.40
61591;DHT22;71994;52.410;-1.966;2024-01-25T01:30:46;15.50;49.30
61591;DHT22;71994;52.410;-1.966;2024-01-25T01:33:52;15.50;49.30
61591;DHT22;71994;52.410;-1.966;2024-01-25T01:36:59;15.50;49.30
61591;DHT22;71994;52.410;-1.966;2024-01-25T01:40:06;15.50;49.30
61591;DHT22;71994;52.410;-1.966;2024-01-25T01:43:18;15.50;49.40
61591;DHT22;71994;52.410;-1.966;2024-01-25T01:46:33;15.50;49.40
61591;DHT22;71994;52.410;-1.966;2024-01-25T01:49:40;15.50;49.40
61591;DHT22;71994;52.410;-1.966;2024-01-25T01:52:47;15.40;49.40
61591;DHT22;71994;52.410;-1.966;2024-01-25T01:55:54;15.40;49.40
61591;DHT22;71994;52.410;-1.966;2024-01-25T01:59:01;15.40;49.40
61591;DHT22;71994;52.410;-1.966;2024-01-25T02:02:10;15.40;49.40
61591;DHT22;71994;52.410;-1.966;2024-01-25T02:05:17;15.40;49.40
61591;DHT22;71994;52.410;-1.966;2024-01-25T02:08:24;15.40;49.40
61591;DHT22;71994;52.410;-1.966;2024-01-25T02:11:33;15.40;49.40
61591;DHT22;71994;52.410;-1.966;2024-01-25T02:14:40;15.40;49.50
61591;DHT22;71994;52.410;-1.966;2024-01-25T02:17:49;15.30;49.50
61591;DHT22;71994;52.410;-1.966;2024-01-25T02:20:55;15.30;49.50
61591;DHT22;71994;52.410;-1.966;2024-01-25T02:24:13;15.30;49.50
61591;DHT22;71994;52.410;-1.966;2024-01-25T02:27:20;15.30;49.60
61591;DHT22;71994;52.410;-1.966;2024-01-25T02:30:26;15.30;49.60
61591;DHT22;71994;52.410;-1.966;2024-01-25T02:33:35;15.30;49.60
61591;DHT22;71994;52.410;-1.966;2024-01-25T02:36:41;15.30;49.60
61591;DHT22;71994;52.410;-1.966;2024-01-25T02:39:51;15.30;49.60
61591;DHT22;71994;52.410;-1.966;2024-01-25T02:42:57;15.30;49.70
61591;DHT22;71994;52.410;-1.966;2024-01-25T02:46:03;15.20;49.60
61591;DHT22;71994;52.410;-1.966;2024-01-25T02:49:10;15.20;49.70
61591;DHT22;71994;52.410;-1.966;2024-01-25T02:52:16;15.20;49.50
61591;DHT22;71994;52.410;-1.966;2024-01-25T02:55:25;15.30;49.50
61591;DHT22;71994;52.410;-1.966;2024-01-25T02:58:32;15.40;49.50
61591;DHT22;71994;52.410;-1.966;2024-01-25T03:01:40;15.50;49.20
61591;DHT22;71994;52.410;-1.966;2024-01-25T03:04:46;15.60;49.00
61591;DHT22;71994;52.410;-1.966;2024-01-25T03:07:53;15.70;48.80
61591;DHT22;71994;52.410;-1.966;2024-01-25T03:11:02;15.80;48.70
61591;DHT22;71994;52.410;-1.966;2024-01-25T03:14:08;15.80;48.60
61591;DHT22;71994;52.410;-1.966;2024-01-25T03:17:15;15.90;48.50
61591;DHT22;71994;52.410;-1.966;2024-01-25T03:20:21;15.90;48.40
61591;DHT22;71994;52.410;-1.966;2024-01-25T03:23:28;15.90;48.30
61591;DHT22;71994;52.410;-1.966;2024-01-25T03:26:37;15.90;48.40
61591;DHT22;71994;52.410;-1.966;2024-01-25T03:29:43;15.80;48.30
61591;DHT22;71994;52.410;-1.966;2024-01-25T03:32:50;15.80;48.40
61591;DHT22;71994;52.410;-1.966;2024-01-25T03:35:56;15.80;48.40
61591;DHT22;71994;52.410;-1.966;2024-01-25T03:39:02;15.80;48.40
61591;DHT22;71994;52.410;-1.966;2024-01-25T03:42:11;15.80;48.50
61591;DHT22;71994;52.410;-1.966;2024-01-25T03:45:18;15.80;48.50
61591;DHT22;71994;52.410;-1.966;2024-01-25T03:48:24;15.80;48.50
61591;DHT22;71994;52.410;-1.966;2024-01-25T03:51:30;15.70;48.50
61591;DHT22;71994;52.410;-1.966;2024-01-25T03:54:36;15.70;48.60
61591;DHT22;71994;52.410;-1.966;2024-01-25T03:57:45;15.70;48.60
61591;DHT22;71994;52.410;-1.966;2024-01-25T04:00:52;15.60;48.70
61591;DHT22;71994;52.410;-1.966;2024-01-25T04:03:58;15.70;48.60
61591;DHT22;71994;52.410;-1.966;2024-01-25T04:07:05;15.60;48.70
61591;DHT22;71994;52.410;-1.966;2024-01-25T04:10:11;15.60;48.70
61591;DHT22;71994;52.410;-1.966;2024-01-25T04:13:20;15.60;48.80
61591;DHT22;71994;52.410;-1.966;2024-01-25T04:16:26;15.60;48.70
61591;DHT22;71994;52.410;-1.966;2024-01-25T04:19:33;15.50;48.80
61591;DHT22;71994;52.410;-1.966;2024-01-25T04:22:39;15.50;48.90
61591;DHT22;71994;52.410;-1.966;2024-01-25T04:25:45;15.50;48.90
61591;DHT22;71994;52.410;-1.966;2024-01-25T04:28:55;15.50;48.90
61591;DHT22;71994;52.410;-1.966;2024-01-25T04:32:01;15.50;49.00
61591;DHT22;71994;52.410;-1.966;2024-01-25T04:35:08;15.40;49.10
61591;DHT22;71994;52.410;-1.966;2024-01-25T04:38:15;15.40;49.10
61591;DHT22;71994;52.410;-1.966;2024-01-25T04:41:21;15.40;49.10
61591;DHT22;71994;52.410;-1.966;2024-01-25T04:44:30;15.40;49.20
61591;DHT22;71994;52.410;-1.966;2024-01-25T04:47:37;15.40;49.20
61591;DHT22;71994;52.410;-1.966;2024-01-25T04:50:44;15.40;49.20
61591;DHT22;71994;52.410;-1.966;2024-01-25T04:53:50;15.30;49.30
61591;DHT22;71994;52.410;-1.966;2024-01-25T04:56:56;15.40;49.30
61591;DHT22;71994;52.410;-1.966;2024-01-25T05:00:09;15.30;49.30
61591;DHT22;71994;52.410;-1.966;2024-01-25T05:03:15;15.30;49.30
61591;DHT22;71994;52.410;-1.966;2024-01-25T05:06:22;15.30;49.30
61591;DHT22;71994;52.410;-1.966;2024-01-25T05:09:28;15.30;49.40
61591;DHT22;71994;52.410;-1.966;2024-01-25T05:12:35;15.30;49.40
61591;DHT22;71994;52.410;-1.966;2024-01-25T05:15:44;15.30;49.40
61591;DHT22;71994;52.410;-1.966;2024-01-25T05:18:50;15.30;49.40
61591;DHT22;71994;52.410;-1.966;2024-01-25T05:21:57;15.30;49.30
61591;DHT22;71994;52.410;-1.966;2024-01-25T05:25:04;15.30;49.40
61591;DHT22;71994;52.410;-1.966;2024-01-25T05:28:11;15.30;49.40
61591;DHT22;71994;52.410;-1.966;2024-01-25T05:31:20;15.30;49.40
61591;DHT22;71994;52.410;-1.966;2024-01-25T05:34:26;15.30;49.40
61591;DHT22;71994;52.410;-1.966;2024-01-25T05:37:33;15.30;49.40
61591;DHT22;71994;52.410;-1.966;2024-01-25T05:40:39;15.30;49.50
61591;DHT22;71994;52.410;-1.966;2024-01-25T05:43:45;15.20;49.50
61591;DHT22;71994;52.410;-1.966;2024-01-25T05:46:54;15.20;49.50
61591;DHT22;71994;52.410;-1.966;2024-01-25T05:50:00;15.20;49.50
61591;DHT22;71994;52.410;-1.966;2024-01-25T05:53:07;15.20;49.40
61591;DHT22;71994;52.410;-1.966;2024-01-25T05:56:16;15.30;49.40
61591;DHT22;71994;52.410;-1.966;2024-01-25T05:59:22;15.30;49.40
61591;DHT22;71994;52.410;-1.966;2024-01-25T06:02:31;15.30;49.40
61591;DHT22;71994;52.410;-1.966;2024-01-25T06:05:38;15.30;49.40
61591;DHT22;71994;52.410;-1.966;2024-01-25T06:08:44;15.30;49.40
61591;DHT22;71994;52.410;-1.966;2024-01-25T06:11:51;15.40;49.30
61591;DHT22;71994;52.410;-1.966;2024-01-25T06:14:57;15.50;49.20
61591;DHT22;71994;52.410;-1.966;2024-01-25T06:18:06;15.50;49.10
61591;DHT22;71994;52.410;-1.966;2024-01-25T06:21:13;15.60;49.00
61591;DHT22;71994;52.410;-1.966;2024-01-25T06:24:19;15.60;48.90
61591;DHT22;71994;52.410;-1.966;2024-01-25T06:27:25;15.70;48.90
61591;DHT22;71994;52.410;-1.966;2024-01-25T06:30:33;15.70;48.80
61591;DHT22;71994;52.410;-1.966;2024-01-25T06:33:42;15.70;48.70
61591;DHT22;71994;52.410;-1.966;2024-01-25T06:36:50;15.70;48.70
61591;DHT22;71994;52.410;-1.966;2024-01-25T06:39:56;15.80;48.70
61591;DHT22;71994;52.410;-1.966;2024-01-25T06:43:02;15.70;48.70
61591;DHT22;71994;52.410;-1.966;2024-01-25T06:46:11;15.70;48.70
61591;DHT22;71994;52.410;-1.966;2024-01-25T06:49:20;15.70;48.70
61591;DHT22;71994;52.410;-1.966;2024-01-25T06:52:27;15.70;48.80
61591;DHT22;71994;52.410;-1.966;2024-01-25T06:55:33;15.60;48.80
61591;DHT22;71994;52.410;-1.966;2024-01-25T06:58:39;15.70;48.90
61591;DHT22;71994;52.410;-1.966;2024-01-25T07:01:46;15.60;48.90
61591;DHT22;71994;52.410;-1.966;2024-01-25T07:04:56;15.60;48.90
61591;DHT22;71994;52.410;-1.966;2024-01-25T07:08:05;15.60;49.00
61591;DHT22;71994;52.410;-1.966;2024-01-25T07:11:15;15.60;49.00
61591;DHT22;71994;52.410;-1.966;2024-01-25T07:14:22;15.60;49.00
61591;DHT22;71994;52.410;-1.966;2024-01-25T07:17:28;15.70;48.90
61591;DHT22;71994;52.410;-1.966;2024-01-25T07:20:37;15.90;48.70
61591;DHT22;71994;52.410;-1.966;2024-01-25T07:23:44;16.00;48.50
61591;DHT22;71994;52.410;-1.966;2024-01-25T07:26:50;16.30;48.20
61591;DHT22;71994;52.410;-1.966;2024-01-25T07:30:02;16.50;47.90
61591;DHT22;71994;52.410;-1.966;2024-01-25T07:33:08;16.60;47.50
61591;DHT22;71994;52.410;-1.966;2024-01-25T07:36:18;16.70;47.20
61591;DHT22;71994;52.410;-1.966;2024-01-25T07:39:24;16.80;47.00
61591;DHT22;71994;52.410;-1.966;2024-01-25T07:42:30;16.90;46.90
61591;DHT22;71994;52.410;-1.966;2024-01-25T07:45:37;17.00;46.80
61591;DHT22;71994;52.410;-1.966;2024-01-25T07:48:45;17.10;47.30
61591;DHT22;71994;52.410;-1.966;2024-01-25T07:51:54;17.30;47.50
61591;DHT22;71994;52.410;-1.966;2024-01-25T07:55:03;17.50;47.40
61591;DHT22;71994;52.410;-1.966;2024-01-25T07:58:10;17.60;47.10
61591;DHT22;71994;52.410;-1.966;2024-01-25T08:01:17;17.70;47.00
61591;DHT22;71994;52.410;-1.966;2024-01-25T08:04:24;17.70;47.10
61591;DHT22;71994;52.410;-1.966;2024-01-25T08:07:35;17.80;46.80
61591;DHT22;71994;52.410;-1.966;2024-01-25T08:10:42;18.00;46.80
61591;DHT22;71994;52.410;-1.966;2024-01-25T08:13:50;18.10;46.50
61591;DHT22;71994;52.410;-1.966;2024-01-25T08:16:56;18.10;46.60
61591;DHT22;71994;52.410;-1.966;2024-01-25T08:20:03;18.20;46.50
61591;DHT22;71994;52.410;-1.966;2024-01-25T08:23:14;18.30;46.30
61591;DHT22;71994;52.410;-1.966;2024-01-25T08:26:22;18.30;46.40
61591;DHT22;71994;52.410;-1.966;2024-01-25T08:29:28;18.30;46.30
61591;DHT22;71994;52.410;-1.966;2024-01-25T08:32:34;18.30;46.20
61591;DHT22;71994;52.410;-1.966;2024-01-25T08:35:42;18.30;46.10
61591;DHT22;71994;52.410;-1.966;2024-01-25T08:38:53;18.20;46.10
61591;DHT22;71994;52.410;-1.966;2024-01-25T08:42:01;18.20;46.20
61591;DHT22;71994;52.410;-1.966;2024-01-25T08:45:09;18.10;46.10
61591;DHT22;71994;52.410;-1.966;2024-01-25T08:48:16;18.10;46.50
61591;DHT22;71994;52.410;-1.966;2024-01-25T08:51:23;18.00;46.50
61591;DHT22;71994;52.410;-1.966;2024-01-25T08:54:32;17.90;46.50
61591;DHT22;71994;52.410;-1.966;2024-01-25T08:57:40;17.80;46.50
61591;DHT22;71994;52.410;-1.966;2024-01-25T09:00:46;17.70;46.70
61591;DHT22;71994;52.410;-1.966;2024-01-25T09:03:55;17.70;46.80
61591;DHT22;71994;52.410;-1.966;2024-01-25T09:07:05;17.60;46.90
61591;DHT22;71994;52.410;-1.966;2024-01-25T09:10:15;17.50;47.00
61591;DHT22;71994;52.410;-1.966;2024-01-25T09:13:22;17.50;47.20
61591;DHT22;71994;52.410;-1.966;2024-01-25T09:16:31;17.40;47.20
61591;DHT22;71994;52.410;-1.966;2024-01-25T09:19:37;17.30;47.40
61591;DHT22;71994;52.410;-1.966;2024-01-25T09:22:43;17.20;47.60
61591;DHT22;71994;52.410;-1.966;2024-01-25T09:25:53;17.10;47.80
61591;DHT22;71994;52.410;-1.966;2024-01-25T09:28:59;17.10;47.90
61591;DHT22;71994;52.410;-1.966;2024-01-25T09:32:06;17.00;47.90
61591;DHT22;71994;52.410;-1.966;2024-01-25T09:35:13;17.00;48.10
61591;DHT22;71994;52.410;-1.966;2024-01-25T09:38:19;16.90;48.40
61591;DHT22;71994;52.410;-1.966;2024-01-25T09:41:28;16.80;48.50
61591;DHT22;71994;52.410;-1.966;2024-01-25T09:44:35;16.80;48.40
61591;DHT22;71994;52.410;-1.966;2024-01-25T09:47:41;16.90;48.40
61591;DHT22;71994;52.410;-1.966;2024-01-25T09:50:47;16.90;48.30
61591;DHT22;71994;52.410;-1.966;2024-01-25T09:53:54;17.00;48.30
61591;DHT22;71994;52.410;-1.966;2024-01-25T09:57:08;17.10;48.20
61591;DHT22;71994;52.410;-1.966;2024-01-25T10:00:20;17.40;48.00
61591;DHT22;71994;52.410;-1.966;2024-01-25T10:03:27;17.60;47.70
61591;DHT22;71994;52.410;-1.966;2024-01-25T10:06:33;17.70;47.30
61591;DHT22;71994;52.410;-1.966;2024-01-25T10:09:40;17.80;47.10
61591;DHT22;71994;52.410;-1.966;2024-01-25T10:12:49;17.90;47.10
61591;DHT22;71994;52.410;-1.966;2024-01-25T10:15:55;18.00;46.80
61591;DHT22;71994;52.410;-1.966;2024-01-25T10:19:06;18.00;47.00
61591;DHT22;71994;52.410;-1.966;2024-01-25T10:22:12;18.00;46.90
61591;DHT22;71994;52.410;-1.966;2024-01-25T10:25:19;18.00;47.20
61591;DHT22;71994;52.410;-1.966;2024-01-25T10:28:28;18.00;47.30
61591;DHT22;71994;52.410;-1.966;2024-01-25T10:31:38;17.90;47.70
61591;DHT22;71994;52.410;-1.966;2024-01-25T10:34:47;17.80;47.50
61591;DHT22;71994;52.410;-1.966;2024-01-25T10:37:55;17.70;47.90
61591;DHT22;71994;52.410;-1.966;2024-01-25T10:41:03;17.70;47.80
61591;DHT22;71994;52.410;-1.966;2024-01-25T10:44:12;17.60;48.00
61591;DHT22;71994;52.410;-1.966;2024-01-25T10:47:22;17.60;48.30
61591;DHT22;71994;52.410;-1.966;2024-01-25T10:50:30;17.50;48.40
61591;DHT22;71994;52.410;-1.966;2024-01-25T10:53:40;17.40;48.40
61591;DHT22;71994;52.410;-1.966;2024-01-25T10:56:47;17.30;48.60
61591;DHT22;71994;52.410;-1.966;2024-01-25T10:59:56;17.30;48.80
61591;DHT22;71994;52.410;-1.966;2024-01-25T11:03:06;17.20;48.90
61591;DHT22;71994;52.410;-1.966;2024-01-25T11:06:13;17.10;49.00
61591;DHT22;71994;52.410;-1.966;2024-01-25T11:09:20;17.10;49.20
61591;DHT22;71994;52.410;-1.966;2024-01-25T11:12:49;17.10;49.30
61591;DHT22;71994;52.410;-1.966;2024-01-25T11:16:17;17.10;49.20
61591;DHT22;71994;52.410;-1.966;2024-01-25T11:19:24;17.00;49.40
61591;DHT22;71994;52.410;-1.966;2024-01-25T11:22:34;16.90;49.40
61591;DHT22;71994;52.410;-1.966;2024-01-25T11:25:44;16.90;49.40
61591;DHT22;71994;52.410;-1.966;2024-01-25T11:28:51;16.90;49.50
61591;DHT22;71994;52.410;-1.966;2024-01-25T11:32:03;16.80;49.20
61591;DHT22;71994;52.410;-1.966;2024-01-25T11:35:10;16.80;49.50
61591;DHT22;71994;52.410;-1.966;2024-01-25T11:38:19;16.80;49.50
61591;DHT22;71994;52.410;-1.966;2024-01-25T11:41:28;16.80;49.50
61591;DHT22;71994;52.410;-1.966;2024-01-25T11:44:35;16.70;49.80
61591;DHT22;71994;52.410;-1.966;2024-01-25T11:47:45;16.70;49.80
61591;DHT22;71994;52.410;-1.966;2024-01-25T11:50:53;16.70;49.80
61591;DHT22;71994;52.410;-1.966;2024-01-25T11:54:02;16.70;50.10
61591;DHT22;71994;52.410;-1.966;2024-01-25T11:57:10;16.60;50.00
61591;DHT22;71994;52.410;-1.966;2024-01-25T12:00:17;16.60;50.10
61591;DHT22;71994;52.410;-1.966;2024-01-25T12:03:27;16.60;50.10
61591;DHT22;71994;52.410;-1.966;2024-01-25T12:06:35;16.60;49.80
61591;DHT22;71994;52.410;-1.966;2024-01-25T12:09:43;16.60;49.70
61591;DHT22;71994;52.410;-1.966;2024-01-25T12:12:50;16.70;49.70
61591;DHT22;71994;52.410;-1.966;2024-01-25T12:15:57;16.90;49.40
61591;DHT22;71994;52.410;-1.966;2024-01-25T12:19:07;17.10;49.20
61591;DHT22;71994;52.410;-1.966;2024-01-25T12:22:20;17.20;49.00
61591;DHT22;71994;52.410;-1.966;2024-01-25T12:25:27;17.50;48.60
61591;DHT22;71994;52.410;-1.966;2024-01-25T12:28:33;17.70;48.20
61591;DHT22;71994;52.410;-1.966;2024-01-25T12:31:39;17.90;47.80
61591;DHT22;71994;52.410;-1.966;2024-01-25T12:34:56;18.00;47.50
61591;DHT22;71994;52.410;-1.966;2024-01-25T12:38:04;18.10;47.30
61591;DHT22;71994;52.410;-1.966;2024-01-25T12:41:10;18.10;47.30
61591;DHT22;71994;52.410;-1.966;2024-01-25T12:44:17;18.10;47.50
61591;DHT22;71994;52.410;-1.966;2024-01-25T12:47:23;18.10;47.50
61591;DHT22;71994;52.410;-1.966;2024-01-25T12:50:32;18.10;47.80
61591;DHT22;71994;52.410;-1.966;2024-01-25T12:53:39;18.10;47.80
61591;DHT22;71994;52.410;-1.966;2024-01-25T12:56:46;18.00;48.20
61591;DHT22;71994;52.410;-1.966;2024-01-25T12:59:52;17.90;48.20
61591;DHT22;71994;52.410;-1.966;2024-01-25T13:02:58;17.80;48.20
61591;DHT22;71994;52.410;-1.966;2024-01-25T13:06:07;17.80;48.70
61591;DHT22;71994;52.410;-1.966;2024-01-25T13:09:14;17.70;48.60
61591;DHT22;71994;52.410;-1.966;2024-01-25T13:12:21;17.70;48.80
61591;DHT22;71994;52.410;-1.966;2024-01-25T13:15:28;17.60;48.90
61591;DHT22;71994;52.410;-1.966;2024-01-25T13:18:35;17.60;48.90
61591;DHT22;71994;52.410;-1.966;2024-01-25T13:21:44;17.60;48.70
61591;DHT22;71994;52.410;-1.966;2024-01-25T13:24:50;17.50;49.20
61591;DHT22;71994;52.410;-1.966;2024-01-25T13:27:56;17.40;48.90
61591;DHT22;71994;52.410;-1.966;2024-01-25T13:31:03;17.40;48.90
61591;DHT22;71994;52.410;-1.966;2024-01-25T13:34:09;17.40;49.30
61591;DHT22;71994;52.410;-1.966;2024-01-25T13:37:18;17.30;49.30
61591;DHT22;71994;52.410;-1.966;2024-01-25T13:40:25;17.30;49.50
61591;DHT22;71994;52.410;-1.966;2024-01-25T13:43:32;17.20;49.40
61591;DHT22;71994;52.410;-1.966;2024-01-25T13:46:38;17.20;49.60
61591;DHT22;71994;52.410;-1.966;2024-01-25T13:49:44;17.10;49.60
61591;DHT22;71994;52.410;-1.966;2024-01-25T13:52:54;17.10;49.90
61591;DHT22;71994;52.410;-1.966;2024-01-25T13:56:00;17.10;50.10
61591;DHT22;71994;52.410;-1.966;2024-01-25T13:59:07;17.00;49.90
61591;DHT22;71994;52.410;-1.966;2024-01-25T14:02:14;17.00;49.90
61591;DHT22;71994;52.410;-1.966;2024-01-25T14:05:20;17.00;50.30
61591;DHT22;71994;52.410;-1.966;2024-01-25T14:08:29;17.00;50.10
61591;DHT22;71994;52.410;-1.966;2024-01-25T14:11:35;16.90;50.20
61591;DHT22;71994;52.410;-1.966;2024-01-25T14:14:42;16.90;50.30
61591;DHT22;71994;52.410;-1.966;2024-01-25T14:17:51;16.90;50.20
61591;DHT22;71994;52.410;-1.966;2024-01-25T14:20:57;16.80;50.20
61591;DHT22;71994;52.410;-1.966;2024-01-25T14:24:06;16.80;50.20
61591;DHT22;71994;52.410;-1.966;2024-01-25T14:27:15;16.80;50.50
61591;DHT22;71994;52.410;-1.966;2024-01-25T14:30:21;16.70;50.40
61591;DHT22;71994;52.410;-1.966;2024-01-25T14:33:27;16.70;50.40
61591;DHT22;71994;52.410;-1.966;2024-01-25T14:36:34;16.70;50.60
61591;DHT22;71994;52.410;-1.966;2024-01-25T14:39:43;16.70;50.60
61591;DHT22;71994;52.410;-1.966;2024-01-25T14:42:53;16.60;50.60
61591;DHT22;71994;52.410;-1.966;2024-01-25T14:46:00;16.60;50.50
61591;DHT22;71994;52.410;-1.966;2024-01-25T14:49:06;16.60;50.70
61591;DHT22;71994;52.410;-1.966;2024-01-25T14:52:13;16.60;50.70
61591;DHT22;71994;52.410;-1.966;2024-01-25T14:55:24;16.60;50.70
61591;DHT22;71994;52.410;-1.966;2024-01-25T14:58:30;16.60;50.50
61591;DHT22;71994;52.410;-1.966;2024-01-25T15:01:37;16.70;50.50
61591;DHT22;71994;52.410;-1.966;2024-01-25T15:04:47;16.80;50.20
61591;DHT22;71994;52.410;-1.966;2024-01-25T15:07:53;17.00;50.00
61591;DHT22;71994;52.410;-1.966;2024-01-25T15:11:03;17.20;49.70
61591;DHT22;71994;52.410;-1.966;2024-01-25T15:14:09;17.40;49.50
61591;DHT22;71994;52.410;-1.966;2024-01-25T15:17:16;17.60;49.10
61591;DHT22;71994;52.410;-1.966;2024-01-25T15:20:22;17.80;48.70
61591;DHT22;71994;52.410;-1.966;2024-01-25T15:23:28;18.00;48.30
61591;DHT22;71994;52.410;-1.966;2024-01-25T15:26:39;18.10;48.10
61591;DHT22;71994;52.410;-1.966;2024-01-25T15:29:46;18.10;48.00
61591;DHT22;71994;52.410;-1.966;2024-01-25T15:32:52;18.10;47.80
61591;DHT22;71994;52.410;-1.966;2024-01-25T15:35:59;18.10;47.80
61591;DHT22;71994;52.410;-1.966;2024-01-25T15:39:06;18.10;48.00
61591;DHT22;71994;52.410;-1.966;2024-01-25T15:42:18;18.10;48.20
61591;DHT22;71994;52.410;-1.966;2024-01-25T15:45:24;18.10;48.40
61591;DHT22;71994;52.410;-1.966;2024-01-25T15:48:31;18.00;48.70
61591;DHT22;71994;52.410;-1.966;2024-01-25T15:51:37;17.90;48.70
61591;DHT22;71994;52.410;-1.966;2024-01-25T15:54:44;17.80;48.90
61591;DHT22;71994;52.410;-1.966;2024-01-25T15:57:54;17.80;49.10
61591;DHT22;71994;52.410;-1.966;2024-01-25T16:01:01;17.70;49.00
61591;DHT22;71994;52.410;-1.966;2024-01-25T16:04:09;17.70;49.00
61591;DHT22;71994;52.410;-1.966;2024-01-25T16:07:15;17.70;49.10
61591;DHT22;71994;52.410;-1.966;2024-01-25T16:10:22;17.60;49.30
61591;DHT22;71994;52.410;-1.966;2024-01-25T16:13:34;17.60;49.60
61591;DHT22;71994;52.410;-1.966;2024-01-25T16:16:40;17.50;49.60
61591;DHT22;71994;52.410;-1.966;2024-01-25T16:19:46;17.50;49.60
61591;DHT22;71994;52.410;-1.966;2024-01-25T16:22:53;17.40;49.80
61591;DHT22;71994;52.410;-1.966;2024-01-25T16:25:59;17.40;50.00
61591;DHT22;71994;52.410;-1.966;2024-01-25T16:29:08;17.30;50.00
61591;DHT22;71994;52.410;-1.966;2024-01-25T16:32:14;17.30;50.00
61591;DHT22;71994;52.410;-1.966;2024-01-25T16:35:21;17.20;49.90
61591;DHT22;71994;52.410;-1.966;2024-01-25T16:38:27;17.20;50.20
61591;DHT22;71994;52.410;-1.966;2024-01-25T16:41:33;17.20;50.30
61591;DHT22;71994;52.410;-1.966;2024-01-25T16:44:43;17.10;50.60
61591;DHT22;71994;52.410;-1.966;2024-01-25T16:47:49;17.10;50.60
61591;DHT22;71994;52.410;-1.966;2024-01-25T16:50:55;17.10;50.80
61591;DHT22;71994;52.410;-1.966;2024-01-25T16:54:01;17.10;50.60
61591;DHT22;71994;52.410;-1.966;2024-01-25T16:57:08;17.00;50.70
61591;DHT22;71994;52.410;-1.966;2024-01-25T17:00:17;17.00;50.90
61591;DHT22;71994;52.410;-1.966;2024-01-25T17:03:25;17.00;51.10
61591;DHT22;71994;52.410;-1.966;2024-01-25T17:06:31;16.90;50.90
61591;DHT22;71994;52.410;-1.966;2024-01-25T17:09:37;16.90;51.00
61591;DHT22;71994;52.410;-1.966;2024-01-25T17:12:44;16.90;50.80
61591;DHT22;71994;52.410;-1.966;2024-01-25T17:15:53;16.90;50.90
61591;DHT22;71994;52.410;-1.966;2024-01-25T17:18:59;16.90;50.90
61591;DHT22;71994;52.410;-1.966;2024-01-25T17:22:06;17.00;52.00
61591;DHT22;71994;52.410;-1.966;2024-01-25T17:25:13;17.00;51.80
61591;DHT22;71994;52.410;-1.966;2024-01-25T17:28:19;17.00;51.90
61591;DHT22;71994;52.410;-1.966;2024-01-25T17:31:29;17.00;51.90
61591;DHT22;71994;52.410;-1.966;2024-01-25T17:34:50;16.90;52.00
61591;DHT22;71994;52.410;-1.966;2024-01-25T17:37:57;16.90;52.00
61591;DHT22;71994;52.410;-1.966;2024-01-25T17:41:04;17.00;52.50
61591;DHT22;71994;52.410;-1.966;2024-01-25T17:44:11;17.00;51.90
61591;DHT22;71994;52.410;-1.966;2024-01-25T17:47:20;16.90;52.10
61591;DHT22;71994;52.410;-1.966;2024-01-25T17:50:27;16.90;52.10
61591;DHT22;71994;52.410;-1.966;2024-01-25T17:53:34;16.90;52.50
61591;DHT22;71994;52.410;-1.966;2024-01-25T17:56:40;16.90;52.40
61591;DHT22;71994;52.410;-1.966;2024-01-25T17:59:47;17.00;52.40
61591;DHT22;71994;52.410;-1.966;2024-01-25T18:02:56;17.00;52.90
61591;DHT22;71994;52.410;-1.966;2024-01-25T18:06:03;17.00;52.70
61591;DHT22;71994;52.410;-1.966;2024-01-25T18:09:10;17.00;53.50
61591;DHT22;71994;52.410;-1.966;2024-01-25T18:12:17;17.00;53.50
61591;DHT22;71994;52.410;-1.966;2024-01-25T18:15:23;17.00;53.60
61591;DHT22;71994;52.410;-1.966;2024-01-25T18:18:34;17.00;53.70
61591;DHT22;71994;52.410;-1.966;2024-01-25T18:21:41;17.00;53.60
61591;DHT22;71994;52.410;-1.966;2024-01-25T18:24:49;17.00;54.20
61591;DHT22;71994;52.410;-1.966;2024-01-25T18:27:56;17.10;54.40
61591;DHT22;71994;52.410;-1.966;2024-01-25T18:31:02;17.10;54.50
61591;DHT22;71994;52.410;-1.966;2024-01-25T18:34:12;17.10;54.40
61591;DHT22;71994;52.410;-1.966;2024-01-25T18:37:18;17.10;54.90
61591;DHT22;71994;52.410;-1.966;2024-01-25T18:40:26;17.10;56.30
61591;DHT22;71994;52.410;-1.966;2024-01-25T18:43:36;17.10;56.40
61591;DHT22;71994;52.410;-1.966;2024-01-25T18:46:46;17.10;56.60
61591;DHT22;71994;52.410;-1.966;2024-01-25T18:49:58;17.10;57.20
61591;DHT22;71994;52.410;-1.966;2024-01-25T18:53:07;17.20;58.40
61591;DHT22;71994;52.410;-1.966;2024-01-25T18:56:17;17.10;59.10
61591;DHT22;71994;52.410;-1.966;2024-01-25T18:59:23;17.20;59.20
61591;DHT22;71994;52.410;-1.966;2024-01-25T19:02:31;17.30;60.50
61591;DHT22;71994;52.410;-1.966;2024-01-25T19:05:41;17.30;60.90
61591;DHT22;71994;52.410;-1.966;2024-01-25T19:08:51;17.40;62.50
61591;DHT22;71994;52.410;-1.966;2024-01-25T19:11:58;17.50;63.70
61591;DHT22;71994;52.410;-1.966;2024-01-25T19:15:07;17.50;63.30
61591;DHT22;71994;52.410;-1.966;2024-01-25T19:18:14;17.60;62.60
61591;DHT22;71994;52.410;-1.966;2024-01-25T19:21:27;17.60;62.80
61591;DHT22;71994;52.410;-1.966;2024-01-25T19:24:45;17.70;63.70